Terminal Aerodrome Forecast
Issued by NWS

Home | Current Version | Previous Version | Text Only | Print | Product List | Glossary On
Versions: 1 2 3 4 5 6 7 8 9 10 11 12 13 14 15 16 17 18 19 20 21 22 23 24 25 26 27 28 29 30 31 32 33 34 35 36 37 38
000
FTUS41 KCTP 250325 AAB
TAFBFD
TAF AMD
KBFD 250325Z 2503/2524 17007KT P6SM FEW050 SCT200
     FM250900 17009G16KT P6SM VCSH SCT015 OVC025
     FM251100 19010G20KT 4SM -SHRA BR SCT008 OVC015
      TEMPO 2514/2516 26015G30KT 2SM +SHRA OVC008
     FM251700 26013G26KT P6SM VCSH OVC025=

USA.gov is the U.S. government's official web portal to all federal, state and local government web resources and services.